Caledonia, IL

5:39 AM CST on February 25, 2017 (GMT -0600)
Aberdeen | | Change Station

Elev 860 ft 42.32 °N, 88.89 °W | Updated 16 seconds ago

Overcast
Overcast
18.9 °F
Feels Like 14 °F
N
3.4
Wind Variable Wind from West
Gusts 4.9 mph

Today
High -- | Low -- °F
--% Chance of Precip.
Yesterday
High -- | Low -- °F
Precip. -- in
Pressure 29.78 in
Visibility 8.0 miles
Clouds Overcast 3800 ft
Windchill 14 °F
Dew Point -8 °F
Humidity 29%
Rainfall 0.00 in
Snow Depth Not available.
6:36 AM 5:40 PM
Waning Crescent, 2% visible
METAR KRFD 251054Z 31011KT 8SM OVC038 M07/M09 A2975 RMK AO2 PK WND 31026/1009 SNE13 SLP083 P0000 T10671094 $
Pressure 29.78 in
Visibility 8.0 miles
Clouds Overcast 3800 ft
Windchill 14 °F
Dew Point -8 °F
Humidity 29%
Rainfall 0.00 in
Snow Depth Not available.
6:36 AM 5:40 PM
Waning Crescent, 2% visible
METAR KRFD 251054Z 31011KT 8SM OVC038 M07/M09 A2975 RMK AO2 PK WND 31026/1009 SNE13 SLP083 P0000 T10671094 $

Get Your Daily Forecast Email!

Thanks for signing up!

Be on the lookout for a verification email in your inbox.

You'll start receiving the daily forecast at 8 AM.

×

10-Day Weather Forecast

Almanac

Astronomy

Feb. 25, 2017 Rise Set
Actual Time
Civil Twilight
Nautical Twilight
Astronomical Twilight
Moon
Length of Visible Light
Length of Day
Tomorrow will be .
, % of the Moon is Illuminated

Today's Extremes

State Highs State Lows

Community

WunderPhotos

Upload Photos

1,962,540 photos uploaded!

WunderBlog® & News

Nearby

Air Quality

  Air Quality AQ Index Pollutant
Not available.

Snow Depth

Station Depth Elevation

Earthquake Activity

City Distance Mag. Time & Date
Minimum magnitude displayed is 2.5.

Coastal Water Temperatures

Place Temperature

Stations

Nearby Weather Stations

Station Location Temp. Windchill Dew Point Humidity Wind Precip. Elev Updated Type
                   

Watches & Warnings

There are currently no watches in effect.